Time;durP1;ratioP1;P1;durP2;ratioP2;P2;SDS_P1;SDS_P2;PMS_P1;PMS_P2;Temp;Humidity;BMP_temperature;BMP_pressure;BME280_temperature;BME280_humidity;BME280_pressure;Samples;Min_cycle;Max_cycle;Signal;HPM_P1;HPM_P2
2021/04/13 00:01:13;;;;;;;2.47;1.90;;;;;;;;;;5055273;28;20198;-46
2021/04/13 00:03:42;;;;;;;2.63;1.90;;;;;;;;;;5056133;28;20179;-46
2021/04/13 00:06:09;;;;;;;2.92;1.60;;;;;;;;;;5056334;28;20550;-47
2021/04/13 00:08:35;;;;;;;2.15;1.70;;;;;;;;;;5052136;28;20190;-46
2021/04/13 00:11:04;;;;;;;2.45;1.88;;;;;;;;;;5055722;28;20179;-46
2021/04/13 00:13:30;;;;;;;2.78;1.67;;;;;;;;;;5056453;28;20167;-46
2021/04/13 00:15:57;;;;;;;1.83;1.63;;;;;;;;;;5055892;28;20581;-46
2021/04/13 00:18:27;;;;;;;2.13;1.70;;;;;;;;;;5055713;28;20250;-46
2021/04/13 00:20:56;;;;;;;2.20;1.52;;;;;;;;;;5055717;28;20551;-46
2021/04/13 00:23:23;;;;;;;2.00;1.45;;;;;;;;;;5055551;28;20816;-46
2021/04/13 00:25:51;;;;;;;1.75;1.50;;;;;;;;;;5056081;28;20258;-46
2021/04/13 00:28:25;;;;;;;2.00;1.60;;;;;;;;;;5055779;28;20179;-47
2021/04/13 00:30:53;;;;;;;1.63;1.40;;;;;;;;;;5055044;28;20171;-46
2021/04/13 00:33:38;;;;;;;1.88;1.65;;;;;;;;;;5055453;28;20266;-46
2021/04/13 00:36:11;;;;;;;3.20;1.42;;;;;;;;;;5055475;28;20291;-46
2021/04/13 00:38:47;;;;;;;2.40;1.50;;;;;;;;;;5051956;28;20574;-46
2021/04/13 00:41:42;;;;;;;1.80;1.70;;;;;;;;;;5054878;28;20447;-47
2021/04/13 00:44:10;;;;;;;2.80;1.40;;;;;;;;;;5042571;28;20188;-46
2021/04/13 00:46:51;;;;;;;1.67;1.50;;;;;;;;;;5055663;28;20198;-46
2021/04/13 00:49:20;;;;;;;2.05;1.73;;;;;;;;;;5054816;28;20187;-46
2021/04/13 00:51:56;;;;;;;2.03;1.33;;;;;;;;;;5054115;28;20171;-46
2021/04/13 00:54:30;;;;;;;1.55;1.20;;;;;;;;;;5055024;28;20183;-47
2021/04/13 00:56:56;;;;;;;1.40;1.30;;;;;;;;;;5054637;28;20207;-46
2021/04/13 00:59:23;;;;;;;2.38;1.65;;;;;;;;;;5054953;28;20180;-46
2021/04/13 01:01:53;;;;;;;1.50;1.40;;;;;;;;;;5053842;28;20456;-46
2021/04/13 01:04:21;;;;;;;1.95;1.67;;;;;;;;;;5054502;28;20187;-47
2021/04/13 01:06:57;;;;;;;1.63;1.38;;;;;;;;;;5054640;28;20179;-46
2021/04/13 01:09:25;;;;;;;1.85;1.60;;;;;;;;;;5055116;28;20183;-46
2021/04/13 01:12:14;;;;;;;1.60;1.50;;;;;;;;;;5054526;28;20262;-46
2021/04/13 01:14:40;;;;;;;1.83;1.45;;;;;;;;;;5054567;28;20190;-46
2021/04/13 01:17:08;;;;;;;1.30;1.20;;;;;;;;;;5054511;28;20508;-46
2021/04/13 01:19:44;;;;;;;1.50;1.33;;;;;;;;;;5054187;28;20183;-46
2021/04/13 01:22:27;;;;;;;1.63;1.33;;;;;;;;;;5054178;28;20221;-46
2021/04/13 01:24:58;;;;;;;1.40;1.25;;;;;;;;;;5055051;28;20550;-46
2021/04/13 01:27:24;;;;;;;1.58;1.27;;;;;;;;;;5054745;28;20186;-46
2021/04/13 01:29:51;;;;;;;1.77;1.48;;;;;;;;;;5054196;28;20183;-46
2021/04/13 01:32:18;;;;;;;1.58;1.05;;;;;;;;;;5053938;28;20206;-46
2021/04/13 01:34:48;;;;;;;1.50;1.38;;;;;;;;;;5054583;28;20203;-46
2021/04/13 01:37:27;;;;;;;1.85;1.30;;;;;;;;;;5054170;28;20203;-46
2021/04/13 01:40:02;;;;;;;1.50;1.20;;;;;;;;;;5054341;28;20182;-46
2021/04/13 01:42:29;;;;;;;2.05;1.58;;;;;;;;;;5053923;28;20219;-46
2021/04/13 01:45:04;;;;;;;1.55;1.42;;;;;;;;;;5054334;28;20289;-46
2021/04/13 01:47:30;;;;;;;1.40;1.20;;;;;;;;;;5054654;28;20261;-46
2021/04/13 01:49:58;;;;;;;1.63;1.20;;;;;;;;;;5053989;28;20192;-46
2021/04/13 01:52:27;;;;;;;1.60;1.45;;;;;;;;;;5053591;28;20190;-47
2021/04/13 01:54:53;;;;;;;1.30;1.20;;;;;;;;;;5054402;28;20423;-46
2021/04/13 01:57:25;;;;;;;1.50;1.40;;;;;;;;;;5054303;28;20211;-46
2021/04/13 01:59:56;;;;;;;2.30;1.45;;;;;;;;;;5054084;28;20175;-46
2021/04/13 02:02:27;;;;;;;1.50;1.40;;;;;;;;;;5052871;28;20604;-46
2021/04/13 02:04:55;;;;;;;1.50;1.40;;;;;;;;;;5053606;28;20194;-46
2021/04/13 02:07:38;;;;;;;2.03;1.40;;;;;;;;;;5053544;28;20183;-46
2021/04/13 02:10:08;;;;;;;1.38;1.10;;;;;;;;;;5057993;28;20233;-46
2021/04/13 02:12:37;;;;;;;1.58;1.35;;;;;;;;;;5057937;28;20250;-46
2021/04/13 02:15:12;;;;;;;1.45;1.23;;;;;;;;;;5058265;28;20233;-46
2021/04/13 02:17:43;;;;;;;1.17;1.08;;;;;;;;;;5058259;28;20199;-46
2021/04/13 02:20:11;;;;;;;1.85;1.20;;;;;;;;;;5057785;28;20179;-46
2021/04/13 02:22:42;;;;;;;2.55;1.50;;;;;;;;;;5057450;28;20183;-46
2021/04/13 02:25:10;;;;;;;1.20;1.08;;;;;;;;;;5054352;28;20601;-46
2021/04/13 02:27:39;;;;;;;1.13;1.08;;;;;;;;;;5058152;28;20179;-46
2021/04/13 02:30:08;;;;;;;1.40;1.25;;;;;;;;;;5057919;28;20187;-46
2021/04/13 02:32:35;;;;;;;2.10;1.27;;;;;;;;;;5057169;28;20596;-46
2021/04/13 02:35:03;;;;;;;1.30;1.20;;;;;;;;;;5057843;28;20241;-46
2021/04/13 02:37:38;;;;;;;1.15;1.05;;;;;;;;;;5057561;28;20227;-46
2021/04/13 02:40:15;;;;;;;1.45;1.17;;;;;;;;;;5057458;28;20174;-46
2021/04/13 02:42:45;;;;;;;1.20;1.20;;;;;;;;;;5056833;28;20206;-46
2021/04/13 02:45:12;;;;;;;1.83;1.23;;;;;;;;;;5057639;28;20551;-46
2021/04/13 02:47:44;;;;;;;1.00;0.90;;;;;;;;;;5057991;28;20262;-46
2021/04/13 02:50:12;;;;;;;2.25;1.30;;;;;;;;;;5057615;28;20205;-46
2021/04/13 02:52:42;;;;;;;1.08;1.08;;;;;;;;;;5056498;28;20580;-46
2021/04/13 02:55:09;;;;;;;1.20;1.10;;;;;;;;;;5057162;28;20554;-46
2021/04/13 02:57:45;;;;;;;1.20;1.10;;;;;;;;;;5057448;28;20578;-46
2021/04/13 03:00:22;;;;;;;1.10;1.00;;;;;;;;;;5057486;28;20171;-46
2021/04/13 03:02:54;;;;;;;1.10;1.00;;;;;;;;;;5057344;28;20175;-46
2021/04/13 03:05:28;;;;;;;1.13;0.90;;;;;;;;;;5055629;28;20178;-46
2021/04/13 03:07:56;;;;;;;1.33;1.10;;;;;;;;;;5056739;28;20202;-46
2021/04/13 03:10:28;;;;;;;0.93;0.93;;;;;;;;;;5057292;28;20178;-46
2021/04/13 03:12:55;;;;;;;1.08;1.00;;;;;;;;;;5057187;28;20167;-47
2021/04/13 03:15:23;;;;;;;1.00;1.00;;;;;;;;;;5057131;28;20198;-47
2021/04/13 03:17:51;;;;;;;0.80;0.75;;;;;;;;;;5057077;28;20506;-46
2021/04/13 03:20:19;;;;;;;1.17;1.08;;;;;;;;;;5055379;28;20209;-46
2021/04/13 03:22:45;;;;;;;2.08;1.05;;;;;;;;;;5056357;28;20258;-46
2021/04/13 03:25:13;;;;;;;0.98;0.82;;;;;;;;;;5056907;28;20187;-47
2021/04/13 03:27:39;;;;;;;0.90;0.90;;;;;;;;;;5056986;28;20554;-46
2021/04/13 03:30:08;;;;;;;1.00;0.90;;;;;;;;;;5056927;28;20209;-46
2021/04/13 03:32:39;;;;;;;1.10;1.02;;;;;;;;;;5056179;28;20203;-46
2021/04/13 03:35:06;;;;;;;0.98;0.98;;;;;;;;;;5056192;28;20199;-46
2021/04/13 03:37:33;;;;;;;1.10;1.00;;;;;;;;;;5056415;28;20199;-46
2021/04/13 03:40:03;;;;;;;1.25;1.08;;;;;;;;;;5056614;28;20566;-46
2021/04/13 03:42:31;;;;;;;1.25;0.98;;;;;;;;;;5056048;28;20193;-46
2021/04/13 03:44:58;;;;;;;1.25;1.15;;;;;;;;;;5056324;28;20228;-46
2021/04/13 03:47:27;;;;;;;0.98;0.98;;;;;;;;;;5056057;28;20186;-46
2021/04/13 03:49:53;;;;;;;0.70;0.70;;;;;;;;;;5056094;28;20183;-46
2021/04/13 03:52:22;;;;;;;1.20;0.90;;;;;;;;;;5055816;28;20688;-46
2021/04/13 03:54:48;;;;;;;1.00;0.90;;;;;;;;;;5056331;28;20266;-46
2021/04/13 03:57:27;;;;;;;0.85;0.85;;;;;;;;;;5056423;28;20265;-46
2021/04/13 03:59:55;;;;;;;0.98;0.88;;;;;;;;;;5056164;28;20189;-46
2021/04/13 04:02:21;;;;;;;1.15;1.00;;;;;;;;;;5055648;28;20463;-46
2021/04/13 04:04:47;;;;;;;0.90;0.90;;;;;;;;;;5055824;28;20179;-46
2021/04/13 04:07:23;;;;;;;0.80;0.80;;;;;;;;;;5056090;28;20194;-46
2021/04/13 04:09:50;;;;;;;0.70;0.70;;;;;;;;;;5055956;28;20273;-46
2021/04/13 04:12:17;;;;;;;1.08;0.88;;;;;;;;;;5054969;28;20186;-46
2021/04/13 04:14:54;;;;;;;0.93;0.77;;;;;;;;;;5056085;28;20179;-46
2021/04/13 04:17:20;;;;;;;0.80;0.80;;;;;;;;;;5055537;28;20237;-46
2021/04/13 04:20:00;;;;;;;0.85;0.85;;;;;;;;;;5055368;28;20198;-46
2021/04/13 04:22:26;;;;;;;0.80;0.80;;;;;;;;;;5055255;28;20183;-46
2021/04/13 04:24:53;;;;;;;0.68;0.68;;;;;;;;;;5055355;28;20259;-46
2021/04/13 04:27:22;;;;;;;0.88;0.88;;;;;;;;;;5056073;28;20175;-46
2021/04/13 04:29:49;;;;;;;0.75;0.75;;;;;;;;;;5055558;28;20238;-46
2021/04/13 04:32:18;;;;;;;0.93;0.93;;;;;;;;;;5054754;28;20285;-46
2021/04/13 04:34:44;;;;;;;0.80;0.80;;;;;;;;;;5055577;28;20478;-46
2021/04/13 04:37:15;;;;;;;1.10;1.00;;;;;;;;;;5048709;28;20206;-46
2021/04/13 04:39:41;;;;;;;0.90;0.90;;;;;;;;;;5049130;28;20167;-46
2021/04/13 04:42:29;;;;;;;1.02;1.00;;;;;;;;;;5055146;28;20175;-46
2021/04/13 04:45:10;;;;;;;1.88;1.10;;;;;;;;;;5054875;28;20167;-46
2021/04/13 04:47:38;;;;;;;1.10;1.00;;;;;;;;;;5055424;28;20261;-46
2021/04/13 04:50:09;;;;;;;1.30;1.20;;;;;;;;;;5054836;28;20198;-46
2021/04/13 04:52:35;;;;;;;1.20;1.10;;;;;;;;;;5051595;28;20225;-46
2021/04/13 04:55:01;;;;;;;1.02;1.00;;;;;;;;;;5055041;28;20183;-46
2021/04/13 04:57:27;;;;;;;1.20;1.10;;;;;;;;;;5054338;28;20298;-46
2021/04/13 04:59:53;;;;;;;1.38;1.27;;;;;;;;;;5054868;28;20175;-46
2021/04/13 05:02:19;;;;;;;1.20;1.10;;;;;;;;;;5053166;28;20309;-46
2021/04/13 05:04:46;;;;;;;1.05;1.00;;;;;;;;;;5054282;28;20175;-46
2021/04/13 05:07:12;;;;;;;1.20;1.10;;;;;;;;;;5053639;28;20175;-46
2021/04/13 05:09:38;;;;;;;1.30;1.17;;;;;;;;;;5054346;28;20176;-46
2021/04/13 05:12:05;;;;;;;0.90;0.90;;;;;;;;;;5054298;28;20229;-46
2021/04/13 05:14:31;;;;;;;1.00;0.90;;;;;;;;;;5054599;28;20183;-46
2021/04/13 05:16:57;;;;;;;1.13;0.98;;;;;;;;;;5052942;28;20649;-46
2021/04/13 05:19:23;;;;;;;1.00;1.00;;;;;;;;;;5054256;28;20561;-46
2021/04/13 05:21:49;;;;;;;1.15;1.05;;;;;;;;;;5052687;28;20266;-46
2021/04/13 05:24:16;;;;;;;1.85;1.10;;;;;;;;;;5054562;28;20515;-46
2021/04/13 05:26:42;;;;;;;1.30;1.20;;;;;;;;;;5054895;28;20439;-46
2021/04/13 05:29:09;;;;;;;1.42;1.33;;;;;;;;;;5054328;28;20187;-47
2021/04/13 05:31:36;;;;;;;1.10;0.95;;;;;;;;;;5053943;28;20546;-46
2021/04/13 05:34:02;;;;;;;1.20;1.10;;;;;;;;;;5054210;28;20183;-46
2021/04/13 05:36:28;;;;;;;1.20;1.10;;;;;;;;;;5054409;28;20203;-46
2021/04/13 05:38:54;;;;;;;1.10;1.10;;;;;;;;;;5054622;28;20248;-46
2021/04/13 05:41:20;;;;;;;1.30;1.20;;;;;;;;;;5054172;28;20185;-46
2021/04/13 05:43:47;;;;;;;1.10;1.05;;;;;;;;;;5054191;28;20185;-46
2021/04/13 05:46:15;;;;;;;1.30;1.20;;;;;;;;;;5054061;28;20218;-46
2021/04/13 05:48:41;;;;;;;2.63;1.23;;;;;;;;;;5053852;28;20183;-46
2021/04/13 05:51:07;;;;;;;1.08;0.98;;;;;;;;;;5053797;28;20190;-46
2021/04/13 05:53:33;;;;;;;1.10;1.10;;;;;;;;;;5054325;28;20179;-46
2021/04/13 05:55:59;;;;;;;1.20;1.10;;;;;;;;;;5054383;28;20199;-46
2021/04/13 05:58:26;;;;;;;2.38;1.10;;;;;;;;;;5054314;28;20246;-46
2021/04/13 06:00:54;;;;;;;1.13;1.10;;;;;;;;;;5053680;28;20191;-46
2021/04/13 06:03:22;;;;;;;1.40;1.30;;;;;;;;;;5054438;28;20181;-46
2021/04/13 06:05:48;;;;;;;1.20;1.10;;;;;;;;;;5052966;28;20210;-46
2021/04/13 06:08:14;;;;;;;1.23;1.13;;;;;;;;;;5053699;28;20193;-46
2021/04/13 06:10:41;;;;;;;1.42;1.33;;;;;;;;;;5053744;28;20250;-46
2021/04/13 06:13:07;;;;;;;2.88;1.30;;;;;;;;;;5053604;28;20174;-46
2021/04/13 06:15:34;;;;;;;1.48;1.38;;;;;;;;;;5054327;28;20505;-46
2021/04/13 06:18:01;;;;;;;1.40;1.30;;;;;;;;;;5054165;28;20171;-46
2021/04/13 06:20:28;;;;;;;1.67;1.58;;;;;;;;;;5053550;28;20233;-46
2021/04/13 06:22:54;;;;;;;1.70;1.60;;;;;;;;;;5054113;28;20171;-46
2021/04/13 06:25:23;;;;;;;21.48;4.97;;;;;;;;;;5054246;28;20174;-46
2021/04/13 06:27:49;;;;;;;18.25;5.40;;;;;;;;;;5053271;28;20244;-46
2021/04/13 06:30:17;;;;;;;18.85;4.65;;;;;;;;;;5053040;28;20262;-46
2021/04/13 06:32:43;;;;;;;11.38;4.35;;;;;;;;;;5053112;28;20184;-46
2021/04/13 06:35:09;;;;;;;15.02;4.78;;;;;;;;;;5050173;28;20214;-46
2021/04/13 06:37:37;;;;;;;8.35;3.42;;;;;;;;;;5053604;28;20214;-47
2021/04/13 06:40:04;;;;;;;11.18;3.70;;;;;;;;;;5053805;28;20206;-46
2021/04/13 06:42:36;;;;;;;10.40;3.83;;;;;;;;;;5053077;28;20550;-46
2021/04/13 06:45:03;;;;;;;7.95;3.28;;;;;;;;;;5053527;28;20176;-46
2021/04/13 06:47:53;;;;;;;7.72;3.00;;;;;;;;;;5053232;28;20172;-46
2021/04/13 06:50:28;;;;;;;8.48;3.05;;;;;;;;;;5023033;28;20211;-46
2021/04/13 06:53:16;;;;;;;10.30;3.47;;;;;;;;;;5053051;28;20217;-46
2021/04/13 06:55:51;;;;;;;7.25;2.85;;;;;;;;;;5035534;28;20431;-47
2021/04/13 06:58:46;;;;;;;6.40;2.80;;;;;;;;;;5056076;28;20204;-44
2021/04/13 07:01:25;;;;;;;8.18;2.90;;;;;;;;;;5035218;28;20215;-46
2021/04/13 07:04:10;;;;;;;8.57;2.92;;;;;;;;;;5052184;28;20207;-44
2021/04/13 07:06:39;;;;;;;8.15;2.70;;;;;;;;;;5053534;28;20191;-47
2021/04/13 07:09:24;;;;;;;5.72;2.63;;;;;;;;;;5057181;28;20182;-45
2021/04/13 07:12:08;;;;;;;8.07;2.95;;;;;;;;;;5054912;28;20186;-44
2021/04/13 07:14:42;;;;;;;9.07;2.72;;;;;;;;;;5055851;28;20175;-47
2021/04/13 07:17:12;;;;;;;5.63;2.85;;;;;;;;;;5054361;28;20299;-46
2021/04/13 07:19:45;;;;;;;6.07;2.25;;;;;;;;;;5056641;28;20176;-44
2021/04/13 07:22:29;;;;;;;6.28;2.53;;;;;;;;;;5055740;28;20497;-48
2021/04/13 07:25:00;;;;;;;6.30;2.28;;;;;;;;;;5056973;28;20236;-48
2021/04/13 07:27:46;;;;;;;4.93;2.50;;;;;;;;;;5056337;28;20179;-46
2021/04/13 07:30:12;;;;;;;7.80;2.38;;;;;;;;;;5056534;28;20205;-48
2021/04/13 07:32:38;;;;;;;4.93;2.03;;;;;;;;;;5055618;28;20211;-46
2021/04/13 07:35:06;;;;;;;6.68;2.50;;;;;;;;;;5056246;28;20680;-46
2021/04/13 07:37:38;;;;;;;4.75;2.20;;;;;;;;;;5056286;28;20218;-45
2021/04/13 07:40:07;;;;;;;5.80;2.50;;;;;;;;;;5056499;28;20218;-46
2021/04/13 07:42:35;;;;;;;5.88;1.98;;;;;;;;;;5056005;28;20739;-48
2021/04/13 07:45:19;;;;;;;3.35;2.17;;;;;;;;;;5056256;28;20198;-47
2021/04/13 07:47:45;;;;;;;5.53;2.30;;;;;;;;;;5056059;28;20185;-48
2021/04/13 07:50:12;;;;;;;7.88;2.35;;;;;;;;;;5055906;28;20452;-48
2021/04/13 07:52:55;;;;;;;4.15;2.20;;;;;;;;;;5055832;28;20190;-46
2021/04/13 07:55:36;;;;;;;7.00;2.00;;;;;;;;;;5056070;28;20492;-45
2021/04/13 07:58:01;;;;;;;6.80;2.13;;;;;;;;;;5055941;28;20198;-46
2021/04/13 08:00:28;;;;;;;12.90;2.55;;;;;;;;;;5055778;28;20241;-48
2021/04/13 08:03:07;;;;;;;8.68;2.28;;;;;;;;;;5056071;28;20625;-45
2021/04/13 08:05:44;;;;;;;5.25;2.00;;;;;;;;;;5053462;28;20451;-46
2021/04/13 08:08:28;;;;;;;4.55;1.92;;;;;;;;;;5056543;28;20481;-46
2021/04/13 08:11:14;;;;;;;2.95;2.03;;;;;;;;;;5055675;28;20179;-49
2021/04/13 08:13:43;;;;;;;5.03;2.00;;;;;;;;;;5054894;28;20182;-48
2021/04/13 08:16:30;;;;;;;3.92;1.90;;;;;;;;;;5053576;28;20209;-46
2021/04/13 08:19:34;;;;;;;5.25;1.92;;;;;;;;;;5041799;28;20266;-45
2021/04/13 08:22:10;;;;;;;8.75;2.30;;;;;;;;;;4974779;28;20277;-45
2021/04/13 08:32:56;;;;;;;4.50;2.08;;;;;;;;;;5010580;22;20236;-44
2021/04/13 08:35:31;;;;;;;6.18;1.90;;;;;;;;;;5014651;28;20769;-45
2021/04/13 08:38:04;;;;;;;7.10;2.28;;;;;;;;;;4997300;28;20255;-47
2021/04/13 08:40:34;;;;;;;5.57;2.20;;;;;;;;;;5015524;28;20160;-46
2021/04/13 08:43:11;;;;;;;4.78;2.03;;;;;;;;;;5014512;28;20206;-45
2021/04/13 08:45:49;;;;;;;4.47;1.85;;;;;;;;;;5014150;28;20171;-44
2021/04/13 08:48:18;;;;;;;7.35;2.25;;;;;;;;;;5014645;28;20214;-48
2021/04/13 08:50:50;;;;;;;7.60;2.35;;;;;;;;;;5015316;28;20455;-46
2021/04/13 08:53:38;;;;;;;6.40;2.50;;;;;;;;;;5015724;28;20166;-48
2021/04/13 08:56:12;;;;;;;7.05;1.73;;;;;;;;;;5015745;28;20254;-49
2021/04/13 08:58:46;;;;;;;3.03;1.80;;;;;;;;;;5014835;28;20200;-48
2021/04/13 09:01:31;;;;;;;10.02;1.95;;;;;;;;;;5012408;28;20178;-47
2021/04/13 09:03:58;;;;;;;4.22;1.90;;;;;;;;;;5017762;28;20540;-44
2021/04/13 09:06:43;;;;;;;10.50;2.67;;;;;;;;;;5016223;28;20190;-48
2021/04/13 09:09:09;;;;;;;6.45;2.35;;;;;;;;;;5015205;28;20191;-46
2021/04/13 09:11:48;;;;;;;4.60;2.42;;;;;;;;;;5014794;28;20255;-45
2021/04/13 09:14:32;;;;;;;5.30;2.22;;;;;;;;;;4997567;28;20473;-44
2021/04/13 09:17:22;;;;;;;7.00;2.55;;;;;;;;;;5005838;28;20196;-45
2021/04/13 09:19:51;;;;;;;5.50;2.58;;;;;;;;;;4987057;28;20293;-45
2021/04/13 09:22:26;;;;;;;7.57;3.47;;;;;;;;;;5009464;28;20189;-45
2021/04/13 09:25:05;;;;;;;5.70;3.42;;;;;;;;;;5017299;28;20467;-45
2021/04/13 09:27:38;;;;;;;7.35;4.07;;;;;;;;;;5015212;28;20238;-45
2021/04/13 09:30:19;;;;;;;8.23;4.03;;;;;;;;;;5023051;28;20260;-46
2021/04/13 09:32:47;;;;;;;9.27;3.40;;;;;;;;;;5013493;28;20275;-47
2021/04/13 09:35:19;;;;;;;8.98;3.53;;;;;;;;;;5014694;28;20172;-47
2021/04/13 09:38:06;;;;;;;9.82;3.25;;;;;;;;;;5014321;28;20244;-45
2021/04/13 09:40:41;;;;;;;7.40;2.83;;;;;;;;;;4984630;28;20185;-48
2021/04/13 09:43:26;;;;;;;4.28;3.00;;;;;;;;;;5014991;28;20585;-44
2021/04/13 09:45:57;;;;;;;4.45;2.47;;;;;;;;;;5014835;28;20618;-49
2021/04/13 09:48:42;;;;;;;2.78;2.10;;;;;;;;;;5008153;28;20488;-45
2021/04/13 09:51:15;;;;;;;3.55;1.95;;;;;;;;;;5014651;28;20172;-46
2021/04/13 09:54:00;;;;;;;2.95;1.92;;;;;;;;;;5014715;28;20179;-46
2021/04/13 09:56:29;;;;;;;4.50;1.85;;;;;;;;;;5015034;28;20617;-47
2021/04/13 09:59:07;;;;;;;3.50;1.85;;;;;;;;;;5014443;28;20181;-47
2021/04/13 10:01:38;;;;;;;2.97;1.73;;;;;;;;;;5014244;28;20180;-48
2021/04/13 10:04:18;;;;;;;3.80;1.77;;;;;;;;;;5014680;28;20195;-47
2021/04/13 10:07:04;;;;;;;4.20;1.88;;;;;;;;;;4997554;28;20459;-46
2021/04/13 10:09:36;;;;;;;5.13;1.70;;;;;;;;;;5014325;28;20267;-46
2021/04/13 10:12:26;;;;;;;1.92;1.48;;;;;;;;;;5014076;28;20184;-48
2021/04/13 10:14:59;;;;;;;3.75;1.60;;;;;;;;;;4986832;28;20732;-48
2021/04/13 10:17:31;;;;;;;3.30;1.52;;;;;;;;;;5014796;28;20236;-46
2021/04/13 10:20:09;;;;;;;3.90;1.58;;;;;;;;;;5014264;28;20292;-44
2021/04/13 10:22:51;;;;;;;1.48;1.38;;;;;;;;;;5014389;28;20172;-47
2021/04/13 10:25:23;;;;;;;2.60;1.40;;;;;;;;;;5014708;28;20190;-48
2021/04/13 10:28:08;;;;;;;2.78;1.35;;;;;;;;;;5014957;28;20204;-46
2021/04/13 10:30:53;;;;;;;3.78;1.30;;;;;;;;;;5017366;28;20352;-46
2021/04/13 10:33:18;;;;;;;3.72;1.25;;;;;;;;;;5018697;28;20252;-44
2021/04/13 10:36:03;;;;;;;2.92;0.85;;;;;;;;;;5018330;28;20555;-46
2021/04/13 10:38:35;;;;;;;3.40;1.20;;;;;;;;;;5008476;28;20231;-47
2021/04/13 10:41:04;;;;;;;1.70;0.95;;;;;;;;;;4998373;28;20303;-48
2021/04/13 10:43:33;;;;;;;2.47;1.30;;;;;;;;;;4998995;28;20170;-46
2021/04/13 10:46:07;;;;;;;2.10;1.23;;;;;;;;;;5005370;28;20223;-48
2021/04/13 10:48:48;;;;;;;3.20;0.90;;;;;;;;;;5018506;28;20563;-46
2021/04/13 10:51:20;;;;;;;4.05;1.02;;;;;;;;;;5017808;28;20173;-47
2021/04/13 10:53:55;;;;;;;3.08;0.80;;;;;;;;;;5017916;28;20169;-45
2021/04/13 10:56:21;;;;;;;1.75;1.00;;;;;;;;;;4998455;28;20228;-46
2021/04/13 10:58:50;;;;;;;0.93;0.82;;;;;;;;;;5004635;28;20274;-46
2021/04/13 11:01:16;;;;;;;2.42;0.85;;;;;;;;;;5017253;28;20188;-47
2021/04/13 11:04:01;;;;;;;2.67;0.90;;;;;;;;;;5017298;28;20172;-49
2021/04/13 11:06:27;;;;;;;1.75;0.90;;;;;;;;;;5017859;28;20177;-47
2021/04/13 11:08:59;;;;;;;1.52;1.10;;;;;;;;;;5017534;28;20168;-46
2021/04/13 11:11:46;;;;;;;2.50;0.80;;;;;;;;;;5017316;28;20172;-49
2021/04/13 11:14:15;;;;;;;0.95;0.70;;;;;;;;;;5004393;28;20194;-47
2021/04/13 11:16:45;;;;;;;0.88;0.80;;;;;;;;;;4998204;28;20276;-46
2021/04/13 11:19:18;;;;;;;2.05;0.70;;;;;;;;;;4998310;28;20645;-47
2021/04/13 11:22:03;;;;;;;1.80;0.73;;;;;;;;;;4997808;28;20479;-45
2021/04/13 11:24:38;;;;;;;3.65;0.90;;;;;;;;;;4998082;28;20169;-47
2021/04/13 11:27:22;;;;;;;1.45;0.70;;;;;;;;;;5003432;28;20204;-48
2021/04/13 11:30:07;;;;;;;1.17;0.73;;;;;;;;;;5016894;28;20195;-48
2021/04/13 11:32:49;;;;;;;3.83;0.88;;;;;;;;;;5020043;28;20206;-48
2021/04/13 11:35:30;;;;;;;1.63;0.80;;;;;;;;;;5026912;28;20609;-48
2021/04/13 11:38:07;;;;;;;3.13;1.00;;;;;;;;;;5018698;28;20204;-46
2021/04/13 11:40:46;;;;;;;2.55;0.77;;;;;;;;;;5015747;28;20180;-46
2021/04/13 11:43:14;;;;;;;1.02;0.60;;;;;;;;;;5017023;28;20208;-45
2021/04/13 11:45:43;;;;;;;1.23;0.65;;;;;;;;;;5017396;28;20226;-47
2021/04/13 11:48:15;;;;;;;1.88;1.00;;;;;;;;;;5016849;28;20185;-48
2021/04/13 11:50:57;;;;;;;1.20;0.70;;;;;;;;;;5016182;28;20185;-48
2021/04/13 11:53:38;;;;;;;1.20;0.73;;;;;;;;;;5016696;28;20168;-48
2021/04/13 11:56:24;;;;;;;1.23;0.63;;;;;;;;;;5018967;28;20283;-46
2021/04/13 11:59:09;;;;;;;5.35;0.90;;;;;;;;;;5012921;28;20173;-47
2021/04/13 12:01:36;;;;;;;4.90;0.75;;;;;;;;;;4996046;28;20178;-46
2021/04/13 12:04:10;;;;;;;1.65;0.60;;;;;;;;;;4996650;28;20656;-49
2021/04/13 12:06:48;;;;;;;3.22;0.80;;;;;;;;;;5008242;28;20283;-48
2021/04/13 12:09:50;;;;;;;2.08;0.60;;;;;;;;;;5016184;28;20188;-49
2021/04/13 12:12:32;;;;;;;1.30;0.60;;;;;;;;;;4955024;29;20189;-44
2021/04/13 12:15:07;;;;;;;0.98;0.73;;;;;;;;;;5021374;28;20291;-43
2021/04/13 12:17:42;;;;;;;2.90;0.80;;;;;;;;;;5016159;28;20200;-44
2021/04/13 12:20:18;;;;;;;0.93;0.40;;;;;;;;;;5015710;28;20168;-47
2021/04/13 12:22:44;;;;;;;0.75;0.68;;;;;;;;;;5016139;28;20175;-46
2021/04/13 12:25:29;;;;;;;0.60;0.50;;;;;;;;;;5016371;28;20282;-45
2021/04/13 12:28:03;;;;;;;2.40;0.93;;;;;;;;;;5016324;28;20195;-45
2021/04/13 12:30:30;;;;;;;2.80;0.60;;;;;;;;;;5015785;28;20188;-48
2021/04/13 12:32:57;;;;;;;2.72;0.60;;;;;;;;;;5015882;28;20225;-45
2021/04/13 12:35:41;;;;;;;1.77;0.60;;;;;;;;;;5016157;28;20176;-46
2021/04/13 12:38:26;;;;;;;0.63;0.50;;;;;;;;;;5016243;28;20200;-45
2021/04/13 12:41:05;;;;;;;2.83;0.75;;;;;;;;;;5015336;28;20172;-48
2021/04/13 12:43:33;;;;;;;3.30;0.75;;;;;;;;;;5016299;28;20164;-47
2021/04/13 12:46:00;;;;;;;1.33;0.60;;;;;;;;;;5016568;28;20199;-47
2021/04/13 12:48:30;;;;;;;1.73;0.50;;;;;;;;;;5016204;28;20442;-48
2021/04/13 12:51:02;;;;;;;1.05;0.50;;;;;;;;;;5014465;28;20615;-47
2021/04/13 12:53:28;;;;;;;1.38;0.60;;;;;;;;;;5014583;28;20180;-47
2021/04/13 12:56:03;;;;;;;3.67;0.98;;;;;;;;;;5023239;28;20195;-48
2021/04/13 12:58:31;;;;;;;2.47;0.75;;;;;;;;;;5014078;28;20401;-47
2021/04/13 13:00:58;;;;;;;1.58;0.65;;;;;;;;;;5014787;28;20185;-48
2021/04/13 13:03:31;;;;;;;1.20;0.60;;;;;;;;;;5015126;28;20279;-47
2021/04/13 13:05:57;;;;;;;1.50;0.60;;;;;;;;;;5015517;28;20173;-47
2021/04/13 13:08:26;;;;;;;0.88;0.50;;;;;;;;;;5014932;28;20265;-48
2021/04/13 13:10:57;;;;;;;4.28;0.57;;;;;;;;;;5014481;28;20188;-50
2021/04/13 13:13:23;;;;;;;2.55;0.63;;;;;;;;;;5015106;28;20181;-50
2021/04/13 13:15:50;;;;;;;1.45;0.70;;;;;;;;;;5019535;28;20188;-47
2021/04/13 13:18:24;;;;;;;1.40;0.60;;;;;;;;;;5029292;28;20254;-48
2021/04/13 13:21:01;;;;;;;1.63;0.60;;;;;;;;;;5014227;28;20215;-48
2021/04/13 13:23:38;;;;;;;3.50;0.75;;;;;;;;;;5016744;28;20184;-52
2021/04/13 13:26:10;;;;;;;2.70;0.68;;;;;;;;;;5014636;28;20188;-48
2021/04/13 13:28:45;;;;;;;2.03;0.55;;;;;;;;;;4995296;28;20170;-48
2021/04/13 13:31:26;;;;;;;0.80;0.50;;;;;;;;;;5011762;28;20223;-49
2021/04/13 13:33:54;;;;;;;5.93;0.70;;;;;;;;;;5013930;28;20184;-48
2021/04/13 13:36:21;;;;;;;2.38;0.63;;;;;;;;;;5014733;28;20741;-49
2021/04/13 13:38:47;;;;;;;3.15;0.60;;;;;;;;;;5014634;28;20173;-49
2021/04/13 13:41:15;;;;;;;1.48;0.68;;;;;;;;;;5002580;28;20181;-48
2021/04/13 13:43:41;;;;;;;6.80;0.95;;;;;;;;;;5011567;28;20184;-48
2021/04/13 13:46:12;;;;;;;11.65;1.38;;;;;;;;;;5014778;28;20184;-49
2021/04/13 13:48:38;;;;;;;7.60;1.27;;;;;;;;;;5013537;28;20195;-48
2021/04/13 13:51:12;;;;;;;8.27;1.15;;;;;;;;;;5013003;28;20180;-47
2021/04/13 13:53:45;;;;;;;5.50;0.90;;;;;;;;;;5012329;28;20188;-49
2021/04/13 13:56:24;;;;;;;5.53;0.85;;;;;;;;;;5011435;28;20235;-48
2021/04/13 13:58:50;;;;;;;11.00;1.20;;;;;;;;;;5014860;28;20267;-48
2021/04/13 14:01:24;;;;;;;2.65;0.90;;;;;;;;;;5004356;28;20292;-48
2021/04/13 14:03:51;;;;;;;4.80;0.88;;;;;;;;;;5013089;28;20187;-49
2021/04/13 14:06:28;;;;;;;4.20;0.93;;;;;;;;;;5018749;28;20180;-49
2021/04/13 14:09:08;;;;;;;1.13;0.60;;;;;;;;;;5024309;28;20523;-48
2021/04/13 14:11:34;;;;;;;2.75;0.70;;;;;;;;;;5005971;28;20558;-48
2021/04/13 14:14:00;;;;;;;4.68;1.02;;;;;;;;;;5009597;28;20196;-48
2021/04/13 14:16:39;;;;;;;3.85;0.90;;;;;;;;;;5018220;28;20199;-48
2021/04/13 14:19:17;;;;;;;3.60;0.80;;;;;;;;;;5018616;28;20176;-49
2021/04/13 14:21:44;;;;;;;1.48;0.60;;;;;;;;;;5011000;28;20555;-48
2021/04/13 14:24:12;;;;;;;9.00;0.80;;;;;;;;;;5018229;28;20480;-49
2021/04/13 14:26:39;;;;;;;2.25;0.75;;;;;;;;;;5017883;28;20200;-49
2021/04/13 14:29:17;;;;;;;8.30;1.15;;;;;;;;;;5017780;28;20212;-49
2021/04/13 14:31:45;;;;;;;2.97;0.88;;;;;;;;;;5017037;28;20238;-48
2021/04/13 14:34:11;;;;;;;1.40;0.70;;;;;;;;;;5018371;28;20218;-48
2021/04/13 14:36:38;;;;;;;1.00;0.50;;;;;;;;;;5018283;28;20196;-49
2021/04/13 14:39:06;;;;;;;1.95;0.70;;;;;;;;;;5017952;28;20303;-49
2021/04/13 14:41:32;;;;;;;3.17;0.80;;;;;;;;;;5024500;28;20543;-49
2021/04/13 14:43:58;;;;;;;2.60;0.85;;;;;;;;;;4998878;28;20205;-49
2021/04/13 14:46:24;;;;;;;3.42;0.60;;;;;;;;;;4998981;28;20177;-47
2021/04/13 14:48:50;;;;;;;1.80;0.70;;;;;;;;;;4999605;28;20200;-48
2021/04/13 14:51:16;;;;;;;1.15;0.75;;;;;;;;;;4998505;28;20192;-48
2021/04/13 14:53:42;;;;;;;3.35;0.75;;;;;;;;;;5015218;28;20180;-48
2021/04/13 14:56:10;;;;;;;0.70;0.55;;;;;;;;;;5020720;28;20208;-48
2021/04/13 14:58:37;;;;;;;0.88;0.30;;;;;;;;;;5029310;28;20179;-48
2021/04/13 15:01:03;;;;;;;2.55;0.75;;;;;;;;;;5020664;28;20196;-49
2021/04/13 15:03:29;;;;;;;1.20;0.40;;;;;;;;;;5021636;28;20570;-48
2021/04/13 15:05:55;;;;;;;2.28;0.80;;;;;;;;;;5017577;28;20180;-48
2021/04/13 15:08:22;;;;;;;1.65;0.70;;;;;;;;;;5017668;28;20586;-48
2021/04/13 15:10:49;;;;;;;4.15;0.60;;;;;;;;;;5009627;28;20251;-48
2021/04/13 15:13:15;;;;;;;3.35;0.77;;;;;;;;;;5003614;28;20177;-49
2021/04/13 15:15:41;;;;;;;1.95;0.50;;;;;;;;;;5017587;28;20167;-49
2021/04/13 15:18:08;;;;;;;0.68;0.50;;;;;;;;;;5013259;28;20216;-48
2021/04/13 15:20:34;;;;;;;2.10;0.40;;;;;;;;;;5015325;28;20409;-49